Time;durP1;ratioP1;P1;durP2;ratioP2;P2;SDS_P1;SDS_P2;PMS_P1;PMS_P2;Temp;Humidity;BMP_temperature;BMP_pressure;BME280_temperature;BME280_humidity;BME280_pressure;Samples;Min_cycle;Max_cycle;Signal;HPM_P1;HPM_P2
2021/04/03 00:00:11;;;;;;;17.60;6.60;;;6.20;98.30;;;;;;4097311;28;20518;-83
2021/04/03 00:02:14;;;;;;;13.83;5.90;;;6.20;98.30;;;;;;4097324;28;20503;-83
2021/04/03 00:04:16;;;;;;;22.97;6.57;;;6.10;98.30;;;;;;4097229;28;20521;-84
2021/04/03 00:06:18;;;;;;;26.37;7.97;;;6.10;98.30;;;;;;4096210;28;20563;-84
2021/04/03 00:08:24;;;;;;;21.10;7.03;;;6.10;98.30;;;;;;4098271;28;20494;-83
2021/04/03 00:10:28;;;;;;;24.13;5.87;;;6.00;98.30;;;;;;4098638;29;20489;-84
2021/04/03 00:12:30;;;;;;;20.83;7.30;;;6.10;98.30;;;;;;4090658;29;20953;-84
2021/04/03 00:14:32;;;;;;;21.83;5.50;;;6.10;98.30;;;;;;4096115;28;20491;-84
2021/04/03 00:16:34;;;;;;;19.70;6.77;;;6.00;98.30;;;;;;4098262;29;20586;-84
2021/04/03 00:18:36;;;;;;;22.00;7.50;;;6.00;98.30;;;;;;4091913;28;20506;-84
2021/04/03 00:20:39;;;;;;;27.27;7.70;;;6.10;98.30;;;;;;4095070;28;20501;-84
2021/04/03 00:22:42;;;;;;;23.50;6.10;;;6.00;98.30;;;;;;4085852;29;20848;-84
2021/04/03 00:24:44;;;;;;;16.00;6.60;;;6.10;98.30;;;;;;4094457;28;20498;-84
2021/04/03 00:26:46;;;;;;;19.67;6.57;;;6.00;98.30;;;;;;4095913;28;20590;-83
2021/04/03 00:28:48;;;;;;;17.93;6.53;;;6.00;98.30;;;;;;4093651;28;20495;-84
2021/04/03 00:30:50;;;;;;;24.47;6.23;;;5.90;98.30;;;;;;4096226;28;20606;-83
2021/04/03 00:32:54;;;;;;;17.37;5.40;;;5.70;98.30;;;;;;4095617;28;20506;-84
2021/04/03 00:34:56;;;;;;;19.43;6.87;;;5.70;98.30;;;;;;4091900;28;20511;-83
2021/04/03 00:36:59;;;;;;;24.80;6.53;;;5.80;98.30;;;;;;4094857;29;20494;-83
2021/04/03 00:39:01;;;;;;;16.97;5.80;;;5.80;98.30;;;;;;4092606;29;20499;-83
2021/04/03 00:41:05;;;;;;;45.17;8.13;;;5.80;98.30;;;;;;4096501;28;20508;-84
2021/04/03 00:43:10;;;;;;;19.50;6.30;;;5.80;98.30;;;;;;4089661;28;20524;-84
2021/04/03 00:45:14;;;;;;;27.73;7.80;;;5.90;98.30;;;;;;4097734;28;20493;-83
2021/04/03 00:47:16;;;;;;;21.13;6.17;;;5.90;98.30;;;;;;4094941;29;20505;-83
2021/04/03 00:49:18;;;;;;;23.70;7.10;;;5.90;98.30;;;;;;4093103;29;20884;-83
2021/04/03 00:51:20;;;;;;;20.83;5.93;;;5.90;98.30;;;;;;4094470;29;21094;-83
2021/04/03 00:53:26;;;;;;;20.97;6.33;;;5.90;98.30;;;;;;4092602;28;20580;-83
2021/04/03 00:55:29;;;;;;;18.57;6.63;;;5.90;98.30;;;;;;4101644;28;20499;-84
2021/04/03 00:57:31;;;;;;;17.87;6.63;;;5.90;98.30;;;;;;4094726;29;20586;-84
2021/04/03 00:59:33;;;;;;;16.33;5.47;;;5.80;98.30;;;;;;4091648;28;20832;-83
2021/04/03 01:01:38;;;;;;;21.63;5.67;;;5.70;98.30;;;;;;4094611;28;20944;-84
2021/04/03 01:03:40;;;;;;;24.03;6.97;;;5.70;98.30;;;;;;4093864;28;20904;-84
2021/04/03 01:05:43;;;;;;;22.40;6.93;;;5.70;98.30;;;;;;4092558;29;20490;-83
2021/04/03 01:07:45;;;;;;;20.50;7.07;;;5.80;98.30;;;;;;4097345;29;20496;-83
2021/04/03 01:09:48;;;;;;;15.30;5.70;;;5.80;98.30;;;;;;4091978;28;20505;-83
2021/04/03 01:12:05;;;;;;;20.17;6.17;;;5.70;98.30;;;;;;4097429;28;20511;-84
2021/04/03 01:14:11;;;;;;;22.87;6.10;;;5.70;98.30;;;;;;4093399;28;20499;-83
2021/04/03 01:16:16;;;;;;;24.83;6.10;;;5.60;98.30;;;;;;4088127;29;20564;-84
2021/04/03 01:18:25;;;;;;;21.27;5.97;;;5.70;98.30;;;;;;4098060;28;20501;-83
2021/04/03 01:20:40;;;;;;;22.10;6.97;;;5.80;98.30;;;;;;4095184;29;20487;-83
2021/04/03 01:23:04;;;;;;;16.73;5.57;;;5.80;98.30;;;;;;4092392;28;20514;-83
2021/04/03 01:25:14;;;;;;;15.87;7.10;;;5.80;98.30;;;;;;4098544;28;20502;-83
2021/04/03 01:27:20;;;;;;;17.07;6.10;;;5.90;98.30;;;;;;4089238;29;20494;-83
2021/04/03 01:29:44;;;;;;;19.20;6.37;;;5.90;98.30;;;;;;4096626;28;20822;-83
2021/04/03 01:31:47;;;;;;;22.93;6.97;;;5.80;98.30;;;;;;4092787;29;20532;-82
2021/04/03 01:33:51;;;;;;;21.80;6.60;;;5.80;98.30;;;;;;4095624;28;20499;-83
2021/04/03 01:35:57;;;;;;;22.63;6.70;;;5.80;98.30;;;;;;4091307;28;20492;-83
2021/04/03 01:38:05;;;;;;;22.60;7.20;;;5.80;98.30;;;;;;4088322;29;20521;-83
2021/04/03 01:40:10;;;;;;;18.33;6.50;;;5.70;98.30;;;;;;4094193;28;20549;-83
2021/04/03 01:42:19;;;;;;;31.23;7.50;;;5.70;98.30;;;;;;4096011;29;20534;-83
2021/04/03 01:44:27;;;;;;;21.87;7.50;;;5.70;98.30;;;;;;4099119;28;20500;-83
2021/04/03 01:46:34;;;;;;;22.63;6.67;;;5.70;98.30;;;;;;4095556;28;20602;-83
2021/04/03 01:48:38;;;;;;;24.87;8.20;;;5.70;98.30;;;;;;4089786;29;20578;-84
2021/04/03 01:50:41;;;;;;;20.73;7.37;;;5.70;98.30;;;;;;4095372;29;20579;-83
2021/04/03 01:52:43;;;;;;;16.83;6.10;;;5.70;98.30;;;;;;4092478;28;20491;-83
2021/04/03 01:54:46;;;;;;;18.90;6.13;;;5.70;98.30;;;;;;4093369;29;20550;-83
2021/04/03 01:56:51;;;;;;;15.20;6.07;;;5.60;98.30;;;;;;4094082;28;20490;-83
2021/04/03 01:58:55;;;;;;;18.17;6.80;;;5.70;98.30;;;;;;4087215;29;20496;-83
2021/04/03 02:00:59;;;;;;;20.50;7.30;;;5.60;98.30;;;;;;4089948;29;20489;-83
2021/04/03 02:03:04;;;;;;;17.37;5.90;;;5.70;98.30;;;;;;4090252;29;20747;-83
2021/04/03 02:05:10;;;;;;;22.07;7.23;;;5.70;98.30;;;;;;4094329;28;21167;-83
2021/04/03 02:07:15;;;;;;;19.40;6.03;;;5.60;98.30;;;;;;4094203;28;20500;-84
2021/04/03 02:09:19;;;;;;;13.33;5.30;;;5.50;98.30;;;;;;4091019;29;20524;-84
2021/04/03 02:11:22;;;;;;;17.60;5.53;;;5.50;98.30;;;;;;4093002;29;20495;-83
2021/04/03 02:13:25;;;;;;;19.17;6.53;;;5.50;98.30;;;;;;4095457;29;20880;-83
2021/04/03 02:15:29;;;;;;;13.87;5.77;;;5.50;98.30;;;;;;4094136;29;20500;-84
2021/04/03 02:17:33;;;;;;;16.10;5.87;;;5.40;98.30;;;;;;4097454;28;20523;-83
2021/04/03 02:19:38;;;;;;;15.80;5.67;;;5.30;98.30;;;;;;4090237;28;21282;-84
2021/04/03 02:21:40;;;;;;;17.67;6.77;;;5.40;98.30;;;;;;4090611;28;20489;-83
2021/04/03 02:23:43;;;;;;;17.77;5.03;;;5.30;98.30;;;;;;4091620;28;20496;-83
2021/04/03 02:25:45;;;;;;;23.70;6.30;;;5.40;98.30;;;;;;4091323;28;21005;-82
2021/04/03 02:27:46;;;;;;;21.03;6.27;;;5.50;98.30;;;;;;4094079;28;20497;-83
2021/04/03 02:29:48;;;;;;;21.70;6.47;;;5.50;98.30;;;;;;4097070;29;20507;-83
2021/04/03 02:31:51;;;;;;;13.60;5.50;;;5.60;98.30;;;;;;4093706;29;20590;-83
2021/04/03 02:33:53;;;;;;;12.73;4.90;;;5.60;98.30;;;;;;4094550;29;20531;-83
2021/04/03 02:35:56;;;;;;;15.30;6.07;;;5.60;98.30;;;;;;4106831;28;20943;-83
2021/04/03 02:38:00;;;;;;;15.57;5.43;;;5.70;98.30;;;;;;4106762;28;20495;-82
2021/04/03 02:40:04;;;;;;;25.97;7.03;;;5.70;98.30;;;;;;4105047;28;20503;-83
2021/04/03 02:42:12;;;;;;;17.43;5.53;;;5.70;98.30;;;;;;4094829;28;20536;-83
2021/04/03 02:44:19;;;;;;;23.70;6.00;;;5.70;98.30;;;;;;4089374;29;20590;-83
2021/04/03 02:46:26;;;;;;;18.00;5.53;;;5.60;98.30;;;;;;4090504;29;20492;-83
2021/04/03 02:48:32;;;;;;;20.60;7.43;;;5.60;98.30;;;;;;4089998;28;20490;-83
2021/04/03 02:50:39;;;;;;;20.47;6.57;;;5.60;98.30;;;;;;4096196;29;20505;-83
2021/04/03 02:52:46;;;;;;;15.00;5.50;;;5.60;98.30;;;;;;4086421;29;20568;-84
2021/04/03 02:54:49;;;;;;;17.00;5.60;;;5.60;98.30;;;;;;4092847;28;20907;-84
2021/04/03 02:56:54;;;;;;;16.30;5.50;;;5.60;98.30;;;;;;4094041;29;20503;-83
2021/04/03 02:58:57;;;;;;;16.87;5.63;;;5.60;98.30;;;;;;4094011;28;20497;-83
2021/04/03 03:00:59;;;;;;;12.70;5.30;;;5.60;98.30;;;;;;4098372;29;20492;-83
2021/04/03 03:03:03;;;;;;;12.33;5.10;;;5.60;98.30;;;;;;4096509;28;20854;-83
2021/04/03 03:05:07;;;;;;;22.70;6.70;;;5.60;98.30;;;;;;4092466;28;20494;-84
2021/04/03 03:07:10;;;;;;;18.60;6.20;;;5.50;98.30;;;;;;4092075;29;20511;-83
2021/04/03 03:09:14;;;;;;;22.87;5.53;;;5.60;98.30;;;;;;4092283;29;20839;-83
2021/04/03 03:11:36;;;;;;;15.87;5.07;;;5.50;98.30;;;;;;4095488;29;21038;-82
2021/04/03 03:13:39;;;;;;;9.73;4.70;;;5.50;98.30;;;;;;4092510;29;21567;-83
2021/04/03 03:15:41;;;;;;;16.27;5.60;;;5.40;98.30;;;;;;4090060;29;20869;-84
2021/04/03 03:17:44;;;;;;;11.63;5.10;;;5.40;98.30;;;;;;4094546;29;20832;-84
2021/04/03 03:19:46;;;;;;;14.23;5.40;;;5.40;98.30;;;;;;4088204;28;20779;-82
2021/04/03 03:21:49;;;;;;;10.10;5.00;;;5.40;98.30;;;;;;4096681;28;20574;-83
2021/04/03 03:23:52;;;;;;;14.07;5.20;;;5.40;98.30;;;;;;4095605;28;20510;-83
2021/04/03 03:25:57;;;;;;;15.97;6.40;;;5.40;98.30;;;;;;4096685;28;20533;-83
2021/04/03 03:27:59;;;;;;;16.80;5.80;;;5.40;98.30;;;;;;4097791;29;20492;-82
2021/04/03 03:30:03;;;;;;;20.37;6.20;;;5.40;98.30;;;;;;4093897;28;20515;-83
2021/04/03 03:32:06;;;;;;;11.87;4.53;;;5.40;98.30;;;;;;4097268;29;20503;-83
2021/04/03 03:34:10;;;;;;;12.73;4.20;;;5.40;98.30;;;;;;4098168;28;20500;-83
2021/04/03 03:36:12;;;;;;;19.27;5.73;;;5.30;98.30;;;;;;4119197;23;20507;-81
2021/04/03 03:38:15;;;;;;;13.83;5.80;;;5.30;98.30;;;;;;4108148;28;20542;-81
2021/04/03 03:40:19;;;;;;;12.63;6.33;;;5.10;98.30;;;;;;4113197;28;20496;-81
2021/04/03 03:42:22;;;;;;;12.70;6.67;;;5.10;98.30;;;;;;4110297;28;20494;-80
2021/04/03 03:44:25;;;;;;;14.23;5.53;;;5.20;98.30;;;;;;4114469;28;20502;-80
2021/04/03 03:46:27;;;;;;;18.13;6.13;;;5.00;98.30;;;;;;4110832;28;20525;-80
2021/04/03 03:48:28;;;;;;;13.80;5.83;;;5.00;98.30;;;;;;4110504;28;20493;-82
2021/04/03 03:50:30;;;;;;;15.00;5.60;;;5.00;98.30;;;;;;4108747;28;20867;-81
2021/04/03 03:52:32;;;;;;;16.00;6.57;;;5.00;98.30;;;;;;4110964;28;20501;-82
2021/04/03 03:54:34;;;;;;;9.87;5.50;;;5.10;98.30;;;;;;4111016;28;20530;-81
2021/04/03 03:56:36;;;;;;;12.70;5.30;;;5.10;98.30;;;;;;4114336;28;20487;-82
2021/04/03 03:58:39;;;;;;;14.50;6.47;;;5.10;98.30;;;;;;4108924;28;20594;-82
2021/04/03 04:00:40;;;;;;;19.13;4.90;;;5.10;98.30;;;;;;4107064;28;20500;-82
2021/04/03 04:02:42;;;;;;;11.00;5.00;;;5.10;98.30;;;;;;4110322;28;20520;-82
2021/04/03 04:04:44;;;;;;;16.47;5.60;;;5.10;98.30;;;;;;4113806;28;20594;-82
2021/04/03 04:06:46;;;;;;;16.30;5.70;;;5.00;98.30;;;;;;4110564;28;20538;-82
2021/04/03 04:08:48;;;;;;;15.03;5.40;;;5.00;98.30;;;;;;4114733;28;21015;-82
2021/04/03 04:10:50;;;;;;;17.27;6.57;;;5.00;98.30;;;;;;4112569;28;21136;-82
2021/04/03 04:12:54;;;;;;;13.03;5.73;;;5.10;98.30;;;;;;4111840;28;20504;-81
2021/04/03 04:14:57;;;;;;;10.77;6.00;;;5.10;98.30;;;;;;4111125;28;20498;-82
2021/04/03 04:16:59;;;;;;;10.73;5.90;;;5.10;98.30;;;;;;4111106;28;20484;-82
2021/04/03 04:19:01;;;;;;;17.00;6.50;;;5.10;98.30;;;;;;4113251;28;20498;-83
2021/04/03 04:21:03;;;;;;;18.13;7.10;;;5.10;98.30;;;;;;4110869;28;20494;-81
2021/04/03 04:23:05;;;;;;;14.10;6.30;;;5.00;98.30;;;;;;4115230;28;20499;-82
2021/04/03 04:25:08;;;;;;;13.00;5.20;;;5.00;98.30;;;;;;4106128;28;20493;-83
2021/04/03 04:27:10;;;;;;;11.37;5.77;;;4.90;98.30;;;;;;4110563;28;20504;-82
2021/04/03 04:29:12;;;;;;;12.03;5.10;;;5.00;98.30;;;;;;4110657;28;20489;-82
2021/04/03 04:31:15;;;;;;;17.67;6.30;;;4.90;98.30;;;;;;4114963;28;20569;-82
2021/04/03 04:33:17;;;;;;;15.23;6.20;;;4.90;98.30;;;;;;4109703;28;20503;-83
2021/04/03 04:35:19;;;;;;;13.10;6.20;;;4.90;98.30;;;;;;4107600;28;20491;-83
2021/04/03 04:37:21;;;;;;;8.93;5.23;;;4.90;98.30;;;;;;4112274;28;20491;-83
2021/04/03 04:39:24;;;;;;;15.07;5.70;;;4.90;98.30;;;;;;4105897;28;20515;-84
2021/04/03 04:41:26;;;;;;;11.10;6.13;;;4.80;98.30;;;;;;4111553;28;20592;-82
2021/04/03 04:43:28;;;;;;;16.80;6.17;;;4.90;98.30;;;;;;4109015;28;20521;-83
2021/04/03 04:45:31;;;;;;;13.97;6.00;;;4.90;98.30;;;;;;4112387;28;21020;-82
2021/04/03 04:47:33;;;;;;;12.07;6.47;;;4.90;98.30;;;;;;4110262;28;20498;-83
2021/04/03 04:49:39;;;;;;;27.80;14.27;;;4.90;98.30;;;;;;4108202;28;20494;-82
2021/04/03 04:51:41;;;;;;;39.07;20.77;;;5.00;98.30;;;;;;4109200;28;20494;-83
2021/04/03 04:53:43;;;;;;;98.47;47.63;;;5.00;98.30;;;;;;4111869;28;21078;-82
2021/04/03 04:55:45;;;;;;;27.13;15.27;;;5.00;98.30;;;;;;4111690;28;20504;-82
2021/04/03 04:57:47;;;;;;;21.07;9.03;;;5.00;98.30;;;;;;4107227;28;20526;-81
2021/04/03 04:59:49;;;;;;;11.67;6.60;;;5.00;98.30;;;;;;4109804;28;20544;-82
2021/04/03 05:01:51;;;;;;;17.67;5.93;;;5.00;98.30;;;;;;4113981;28;20868;-82
2021/04/03 05:03:55;;;;;;;15.20;7.07;;;5.00;98.30;;;;;;4111408;28;20493;-82
2021/04/03 05:05:58;;;;;;;10.40;5.77;;;4.90;98.30;;;;;;4109488;28;20500;-82
2021/04/03 05:08:00;;;;;;;11.70;5.43;;;4.80;98.30;;;;;;4107973;28;20853;-82
2021/04/03 05:10:02;;;;;;;11.07;5.87;;;4.90;98.30;;;;;;4108224;28;20507;-83
2021/04/03 05:12:05;;;;;;;12.10;5.47;;;4.90;98.30;;;;;;4109023;28;20492;-83
2021/04/03 05:14:07;;;;;;;20.70;7.37;;;4.90;98.30;;;;;;4113644;28;20547;-82
2021/04/03 05:16:08;;;;;;;12.97;5.60;;;5.00;98.30;;;;;;4106806;28;20492;-82
2021/04/03 05:18:10;;;;;;;114.97;69.47;;;4.90;98.30;;;;;;4115515;28;20507;-82
2021/04/03 05:20:14;;;;;;;108.10;58.03;;;5.00;98.30;;;;;;4108803;28;20506;-80
2021/04/03 05:22:15;;;;;;;38.13;23.50;;;5.00;98.30;;;;;;4109298;28;20619;-82
2021/04/03 05:24:17;;;;;;;18.53;9.73;;;5.00;98.30;;;;;;4111225;28;20510;-82
2021/04/03 05:26:19;;;;;;;11.67;5.70;;;5.00;98.30;;;;;;4110328;28;20594;-82
2021/04/03 05:28:21;;;;;;;10.33;5.60;;;5.10;98.30;;;;;;4107106;28;20566;-80
2021/04/03 05:30:24;;;;;;;10.87;6.53;;;5.00;98.30;;;;;;4109056;28;21488;-82
2021/04/03 05:32:26;;;;;;;8.73;5.90;;;4.90;98.30;;;;;;4107003;28;21032;-81
2021/04/03 05:34:28;;;;;;;15.80;5.93;;;4.90;98.30;;;;;;4112028;28;20497;-82
2021/04/03 05:36:51;;;;;;;8.43;5.67;;;4.90;98.30;;;;;;4109540;28;20489;-82
2021/04/03 05:38:52;;;;;;;10.97;5.50;;;5.00;98.30;;;;;;4108522;28;20527;-83
2021/04/03 05:40:54;;;;;;;10.17;5.50;;;5.10;98.30;;;;;;4108199;28;20520;-82
2021/04/03 05:43:01;;;;;;;9.80;5.63;;;5.10;98.30;;;;;;4110154;28;21214;-82
2021/04/03 05:45:06;;;;;;;14.47;6.30;;;5.30;98.30;;;;;;4110399;28;20487;-82
2021/04/03 05:47:08;;;;;;;10.03;4.93;;;5.30;98.30;;;;;;4108709;28;20491;-82
2021/04/03 05:49:11;;;;;;;11.03;6.30;;;5.30;98.30;;;;;;4109755;28;21166;-82
2021/04/03 05:51:14;;;;;;;9.03;4.50;;;5.40;98.30;;;;;;4108707;28;20487;-81
2021/04/03 05:53:17;;;;;;;8.83;4.87;;;5.40;98.30;;;;;;4111828;28;20502;-82
2021/04/03 05:55:19;;;;;;;9.77;6.13;;;5.40;98.30;;;;;;4107267;28;20996;-82
2021/04/03 05:57:22;;;;;;;15.83;6.20;;;5.50;98.30;;;;;;4111303;28;20502;-82
2021/04/03 05:59:24;;;;;;;9.77;5.60;;;5.50;98.30;;;;;;4111139;28;20495;-83
2021/04/03 06:01:26;;;;;;;8.97;6.37;;;5.60;98.30;;;;;;4107851;28;20492;-83
2021/04/03 06:03:28;;;;;;;13.13;5.77;;;5.60;98.30;;;;;;4108232;28;20497;-83
2021/04/03 06:05:31;;;;;;;11.27;6.83;;;5.80;98.30;;;;;;4108475;28;21006;-81
2021/04/03 06:07:34;;;;;;;10.00;6.33;;;5.80;98.30;;;;;;4107116;28;20491;-82
2021/04/03 06:09:39;;;;;;;8.50;4.97;;;5.90;98.30;;;;;;4112039;28;20518;-82
2021/04/03 06:11:45;;;;;;;16.33;7.53;;;5.90;98.30;;;;;;4109593;28;21462;-82
2021/04/03 06:14:06;;;;;;;9.17;4.90;;;6.00;98.30;;;;;;4110153;28;20503;-81
2021/04/03 06:16:28;;;;;;;10.83;5.70;;;6.00;98.30;;;;;;4110575;28;20874;-83
2021/04/03 06:18:30;;;;;;;66.30;38.83;;;6.20;98.30;;;;;;4109630;28;20491;-83
2021/04/03 06:20:34;;;;;;;129.63;64.80;;;6.30;98.30;;;;;;4109123;28;21052;-81
2021/04/03 06:22:47;;;;;;;66.10;35.97;;;6.50;98.30;;;;;;4107341;28;20539;-83
2021/04/03 06:25:03;;;;;;;22.93;13.07;;;6.60;98.30;;;;;;4114725;28;20602;-81
2021/04/03 06:27:07;;;;;;;8.50;6.10;;;6.70;98.30;;;;;;4107144;28;20578;-81
2021/04/03 06:29:26;;;;;;;9.80;5.43;;;6.70;98.30;;;;;;4106741;28;20488;-82
2021/04/03 06:31:40;;;;;;;6.97;5.07;;;6.90;98.30;;;;;;4106039;28;20507;-82
2021/04/03 06:33:42;;;;;;;12.53;5.80;;;7.00;98.30;;;;;;4099803;28;20507;-82
2021/04/03 06:35:45;;;;;;;11.97;4.83;;;7.00;98.30;;;;;;4105922;28;20505;-82
2021/04/03 06:37:47;;;;;;;11.07;5.93;;;7.10;98.30;;;;;;4102109;28;20484;-81
2021/04/03 06:39:57;;;;;;;7.23;4.27;;;7.20;98.30;;;;;;4103589;28;20501;-82
2021/04/03 06:42:01;;;;;;;6.07;4.67;;;7.40;98.30;;;;;;4100507;28;20493;-82
2021/04/03 06:44:03;;;;;;;10.97;4.70;;;7.40;98.30;;;;;;4108695;28;20543;-81
2021/04/03 06:46:23;;;;;;;8.00;4.60;;;7.50;98.30;;;;;;4104222;28;20547;-81
2021/04/03 06:48:27;;;;;;;7.40;4.90;;;7.50;98.30;;;;;;4099611;28;20474;-82
2021/04/03 06:50:31;;;;;;;7.00;4.50;;;7.50;98.30;;;;;;4105415;28;20523;-81
2021/04/03 06:52:35;;;;;;;10.13;4.73;;;7.60;98.30;;;;;;4103902;28;21038;-80
2021/04/03 06:54:39;;;;;;;9.03;4.70;;;7.60;98.30;;;;;;4108639;28;20515;-82
2021/04/03 06:56:42;;;;;;;8.60;4.57;;;7.70;98.30;;;;;;4102947;28;20547;-82
2021/04/03 06:58:46;;;;;;;9.00;4.70;;;7.80;98.30;;;;;;4107263;28;20497;-81
2021/04/03 07:00:51;;;;;;;9.90;5.40;;;8.00;98.30;;;;;;4108099;28;20511;-83
2021/04/03 07:02:55;;;;;;;12.20;4.97;;;8.00;98.30;;;;;;4106694;28;20498;-82
2021/04/03 07:05:05;;;;;;;8.90;4.93;;;8.00;98.30;;;;;;4107822;28;20502;-82
2021/04/03 07:07:08;;;;;;;9.57;4.87;;;8.10;98.30;;;;;;4105956;28;20879;-83
2021/04/03 07:09:11;;;;;;;9.53;4.80;;;8.30;98.30;;;;;;4098953;28;20868;-82
2021/04/03 07:11:13;;;;;;;8.13;4.20;;;8.40;98.30;;;;;;4111663;28;20534;-82
2021/04/03 07:13:16;;;;;;;8.33;4.60;;;8.60;98.30;;;;;;4110545;28;20507;-83
2021/04/03 07:15:18;;;;;;;10.03;4.10;;;8.60;98.30;;;;;;4110943;28;20522;-83
2021/04/03 07:17:21;;;;;;;8.37;4.00;;;8.60;98.30;;;;;;4112143;28;20520;-82
2021/04/03 07:19:27;;;;;;;7.93;4.60;;;8.70;98.30;;;;;;4108304;28;20537;-83
2021/04/03 07:21:28;;;;;;;92.77;53.73;;;8.80;98.30;;;;;;4111197;28;20494;-82
2021/04/03 07:23:31;;;;;;;53.00;29.73;;;9.00;98.30;;;;;;4106956;28;21033;-83
2021/04/03 07:25:35;;;;;;;29.93;17.33;;;9.00;98.30;;;;;;4107530;28;20474;-83
2021/04/03 07:27:40;;;;;;;9.00;6.43;;;9.20;98.30;;;;;;4107755;28;20471;-82
2021/04/03 07:29:50;;;;;;;7.80;5.30;;;9.30;98.20;;;;;;4108402;28;20467;-83
2021/04/03 07:32:03;;;;;;;6.87;4.40;;;9.40;97.80;;;;;;4111951;28;20503;-82
2021/04/03 07:34:06;;;;;;;7.00;4.37;;;9.40;97.50;;;;;;4110794;28;20495;-83
2021/04/03 07:36:08;;;;;;;12.93;4.30;;;9.50;96.80;;;;;;4107140;28;20480;-83
2021/04/03 07:38:12;;;;;;;6.30;4.10;;;9.70;96.90;;;;;;4110978;28;20492;-82
2021/04/03 07:40:16;;;;;;;6.20;4.60;;;9.80;95.60;;;;;;4104963;28;20563;-82
2021/04/03 07:42:33;;;;;;;5.03;3.53;;;9.90;95.30;;;;;;4107747;28;20542;-82
2021/04/03 07:44:37;;;;;;;11.97;4.10;;;10.00;93.70;;;;;;4109615;28;20459;-84
2021/04/03 07:46:45;;;;;;;8.53;3.77;;;10.00;93.50;;;;;;4109784;28;20468;-82
2021/04/03 07:48:50;;;;;;;13.80;9.03;;;10.20;93.00;;;;;;4107782;28;21155;-82
2021/04/03 07:50:52;;;;;;;22.67;13.30;;;10.30;91.30;;;;;;4111632;28;20470;-83
2021/04/03 07:53:12;;;;;;;35.70;18.13;;;10.40;90.30;;;;;;4109846;28;20580;-82
2021/04/03 07:55:31;;;;;;;25.63;14.20;;;10.60;90.00;;;;;;4109191;28;20545;-83
2021/04/03 07:57:35;;;;;;;40.33;21.30;;;10.80;91.40;;;;;;4111443;28;20492;-82
2021/04/03 07:59:54;;;;;;;11.50;6.73;;;10.90;88.90;;;;;;4111236;28;21297;-82
2021/04/03 08:01:57;;;;;;;5.97;3.40;;;10.90;86.80;;;;;;4110977;28;20532;-82
2021/04/03 08:04:00;;;;;;;6.27;3.77;;;10.90;85.90;;;;;;4112322;28;20525;-83
2021/04/03 08:06:04;;;;;;;9.27;4.00;;;10.80;86.10;;;;;;4113726;28;20491;-82
2021/04/03 08:08:20;;;;;;;5.73;3.60;;;11.00;84.40;;;;;;4109779;28;20541;-83
2021/04/03 08:10:23;;;;;;;4.77;3.50;;;11.00;84.40;;;;;;4108360;28;20571;-83
2021/04/03 08:12:26;;;;;;;6.90;3.47;;;11.10;84.30;;;;;;4111765;28;20481;-83
2021/04/03 08:14:31;;;;;;;6.30;3.30;;;11.10;83.20;;;;;;4111068;28;20576;-83
2021/04/03 08:16:33;;;;;;;4.07;3.27;;;11.10;82.10;;;;;;4112699;28;20484;-83
2021/04/03 08:18:38;;;;;;;4.43;2.50;;;11.20;81.80;;;;;;4112412;28;20488;-83
2021/04/03 08:20:50;;;;;;;5.40;2.80;;;11.30;81.90;;;;;;4112489;28;20567;-83
2021/04/03 08:23:02;;;;;;;5.20;2.60;;;11.40;81.50;;;;;;4108612;28;20493;-83
2021/04/03 08:25:05;;;;;;;3.87;2.87;;;11.50;80.80;;;;;;4111409;28;20523;-83
2021/04/03 08:27:09;;;;;;;4.27;2.47;;;11.50;80.90;;;;;;4105303;28;20492;-84
2021/04/03 08:29:21;;;;;;;3.80;2.97;;;11.60;80.80;;;;;;4104933;28;20522;-82
2021/04/03 08:31:24;;;;;;;4.13;2.70;;;11.60;80.20;;;;;;4109681;28;20492;-83
2021/04/03 08:33:31;;;;;;;5.03;3.20;;;11.70;80.10;;;;;;4110363;28;20488;-83
2021/04/03 08:35:37;;;;;;;5.00;3.13;;;12.00;80.00;;;;;;4110692;28;20499;-82
2021/04/03 08:38:13;;;;;;;21.10;14.70;;;12.20;79.90;;;;;;4117788;28;20552;-83
2021/04/03 08:40:29;;;;;;;21.60;14.33;;;12.40;80.20;;;;;;4112801;28;20523;-81
2021/04/03 08:42:35;;;;;;;13.00;7.77;;;12.60;79.80;;;;;;4111781;28;21033;-80
2021/04/03 08:44:37;;;;;;;7.77;4.00;;;12.60;77.60;;;;;;4114163;28;20498;-82
2021/04/03 08:46:42;;;;;;;4.73;3.40;;;12.60;77.30;;;;;;4112526;28;20501;-81
2021/04/03 08:48:46;;;;;;;3.00;2.70;;;12.60;76.60;;;;;;4111963;28;20841;-82
2021/04/03 08:50:49;;;;;;;2.73;2.27;;;12.60;76.00;;;;;;4112540;28;21065;-81
2021/04/03 08:52:57;;;;;;;2.83;2.50;;;12.60;75.00;;;;;;4113287;28;20487;-82
2021/04/03 08:55:00;;;;;;;6.40;2.63;;;12.50;75.30;;;;;;4112197;28;20484;-82
2021/04/03 08:57:16;;;;;;;5.83;3.00;;;12.60;75.60;;;;;;4115441;28;20499;-82
2021/04/03 08:59:21;;;;;;;22.80;13.47;;;12.70;75.70;;;;;;4112477;28;20496;-83
2021/04/03 09:01:24;;;;;;;33.50;20.97;;;12.80;75.00;;;;;;4111462;28;20528;-82
2021/04/03 09:03:26;;;;;;;50.43;29.33;;;12.80;75.20;;;;;;4110735;28;20495;-83
2021/04/03 09:05:29;;;;;;;14.60;9.63;;;13.10;75.50;;;;;;4110390;28;20494;-82
2021/04/03 09:07:33;;;;;;;9.73;5.77;;;13.30;76.00;;;;;;4109155;28;20483;-82
2021/04/03 09:09:35;;;;;;;11.93;7.47;;;13.40;75.00;;;;;;4110544;28;20580;-82
2021/04/03 09:11:37;;;;;;;8.97;4.90;;;13.50;74.50;;;;;;4113287;28;20584;-82
2021/04/03 09:13:40;;;;;;;15.00;8.43;;;13.60;73.10;;;;;;4110798;28;20903;-82
2021/04/03 09:15:45;;;;;;;3.83;3.27;;;13.50;72.00;;;;;;4112931;28;20499;-84
2021/04/03 09:18:09;;;;;;;6.33;3.90;;;13.60;72.70;;;;;;4110102;28;20488;-82
2021/04/03 09:20:16;;;;;;;6.53;4.70;;;13.80;72.20;;;;;;4110258;28;20501;-83
2021/04/03 09:22:20;;;;;;;14.80;9.80;;;14.00;72.70;;;;;;4108512;28;20504;-83
2021/04/03 09:24:34;;;;;;;19.67;12.77;;;14.20;72.80;;;;;;4109560;28;20551;-83
2021/04/03 09:26:37;;;;;;;31.40;20.50;;;14.40;71.90;;;;;;4111167;28;20491;-82
2021/04/03 09:28:43;;;;;;;12.03;7.50;;;14.50;72.20;;;;;;4114718;28;20538;-81
2021/04/03 09:30:46;;;;;;;7.93;5.67;;;14.70;71.30;;;;;;4115663;28;20485;-81
2021/04/03 09:32:49;;;;;;;8.23;5.50;;;14.60;70.50;;;;;;4115896;28;20501;-81
2021/04/03 09:35:02;;;;;;;6.13;4.57;;;14.60;71.60;;;;;;4113886;28;21035;-82
2021/04/03 09:37:16;;;;;;;5.70;4.70;;;14.80;71.50;;;;;;4683499;23;20492;-81
2021/04/03 09:39:19;;;;;;;8.80;4.70;;;14.90;71.40;;;;;;4137795;28;20559;-80
2021/04/03 09:41:27;;;;;;;4.80;3.47;;;15.10;71.60;;;;;;4141481;28;20502;-82
2021/04/03 09:43:40;;;;;;;3.90;2.93;;;15.00;69.70;;;;;;4135474;28;20494;-81
2021/04/03 09:45:43;;;;;;;4.50;3.47;;;15.00;69.70;;;;;;4139284;28;20537;-81
2021/04/03 09:47:44;;;;;;;6.70;5.40;;;15.00;69.00;;;;;;4122307;28;20497;-81
2021/04/03 09:49:48;;;;;;;4.23;3.47;;;15.00;68.60;;;;;;4121791;28;20534;-81
2021/04/03 09:51:50;;;;;;;5.23;3.67;;;14.90;68.20;;;;;;4123294;28;20487;-80
2021/04/03 09:53:53;;;;;;;4.30;3.87;;;14.80;69.00;;;;;;4131029;28;20486;-80
2021/04/03 09:55:56;;;;;;;5.20;3.90;;;15.00;69.10;;;;;;4129538;28;20489;-81
2021/04/03 09:57:59;;;;;;;3.37;2.60;;;15.40;69.40;;;;;;4120124;28;20550;-80
2021/04/03 10:00:01;;;;;;;3.70;3.30;;;15.50;67.70;;;;;;4131041;28;20483;-80
2021/04/03 10:02:04;;;;;;;17.90;12.83;;;15.80;68.10;;;;;;4121747;28;20490;-80
2021/04/03 10:04:06;;;;;;;18.07;12.77;;;16.10;67.20;;;;;;4119535;28;20501;-80
2021/04/03 10:06:07;;;;;;;5.63;3.80;;;16.10;64.70;;;;;;4127148;28;20495;-80
2021/04/03 10:08:10;;;;;;;4.17;3.20;;;16.10;63.70;;;;;;4130041;28;20873;-80
2021/04/03 10:10:12;;;;;;;9.97;5.50;;;16.20;63.10;;;;;;4132720;28;20491;-81
2021/04/03 10:12:15;;;;;;;8.43;5.97;;;16.10;63.60;;;;;;4129480;28;20490;-80
2021/04/03 10:14:18;;;;;;;11.90;5.33;;;15.90;63.30;;;;;;4131049;28;20950;-81
2021/04/03 10:16:20;;;;;;;6.20;4.17;;;16.00;62.90;;;;;;4134007;28;20491;-81
2021/04/03 10:18:22;;;;;;;28.27;18.63;;;15.90;62.80;;;;;;4131605;28;20491;-81
2021/04/03 10:20:24;;;;;;;6.30;4.57;;;15.80;63.90;;;;;;4126976;28;20902;-82
2021/04/03 10:22:26;;;;;;;4.23;3.07;;;16.00;64.30;;;;;;4118223;28;20542;-81
2021/04/03 10:24:28;;;;;;;2.90;2.60;;;16.40;64.60;;;;;;4132533;28;20510;-81
2021/04/03 10:26:30;;;;;;;6.23;3.70;;;16.40;63.90;;;;;;4131689;28;20495;-81
2021/04/03 10:28:32;;;;;;;5.63;4.00;;;16.20;64.50;;;;;;4132813;28;20648;-81
2021/04/03 10:30:35;;;;;;;7.73;6.23;;;16.20;64.70;;;;;;4131476;28;21016;-81
2021/04/03 10:32:37;;;;;;;4.00;2.80;;;16.20;64.90;;;;;;4131962;28;20506;-81
2021/04/03 10:34:39;;;;;;;3.73;2.83;;;16.30;65.50;;;;;;4131203;28;20509;-80
2021/04/03 10:36:41;;;;;;;6.93;5.53;;;16.60;64.70;;;;;;4132546;28;20626;-81
2021/04/03 10:38:44;;;;;;;29.43;21.53;;;16.70;64.50;;;;;;4119817;28;21248;-81
2021/04/03 10:40:46;;;;;;;21.13;16.10;;;17.00;64.30;;;;;;4132172;28;21595;-81
2021/04/03 10:42:49;;;;;;;4.57;2.90;;;17.10;63.60;;;;;;4132084;28;20505;-80
2021/04/03 10:44:51;;;;;;;4.70;3.33;;;17.10;62.70;;;;;;4132203;28;20529;-81
2021/04/03 10:46:54;;;;;;;6.23;3.60;;;17.00;63.40;;;;;;4132163;28;20495;-81